sensor_id;sensor_type;location;lat;lon;timestamp;temperature;humidity
36458;DHT22;22480;50.546;12.292;2023-02-28T00:00:49;-4.90;99.90
36458;DHT22;22480;50.546;12.292;2023-02-28T00:03:15;-4.90;99.90
36458;DHT22;22480;50.546;12.292;2023-02-28T00:05:40;-4.80;99.90
36458;DHT22;22480;50.546;12.292;2023-02-28T00:08:07;-4.80;99.90
36458;DHT22;22480;50.546;12.292;2023-02-28T00:10:33;-4.70;99.90
36458;DHT22;22480;50.546;12.292;2023-02-28T00:13:02;-4.80;99.90
36458;DHT22;22480;50.546;12.292;2023-02-28T00:15:29;-4.80;99.90
36458;DHT22;22480;50.546;12.292;2023-02-28T00:17:54;-4.80;99.90
36458;DHT22;22480;50.546;12.292;2023-02-28T00:20:20;-4.80;99.90
36458;DHT22;22480;50.546;12.292;2023-02-28T00:22:49;-4.80;99.90
36458;DHT22;22480;50.546;12.292;2023-02-28T00:25:17;-4.80;99.90
36458;DHT22;22480;50.546;12.292;2023-02-28T00:27:44;-4.80;99.90
36458;DHT22;22480;50.546;12.292;2023-02-28T00:30:13;-4.90;99.90
36458;DHT22;22480;50.546;12.292;2023-02-28T00:32:39;-4.80;99.90
36458;DHT22;22480;50.546;12.292;2023-02-28T00:35:05;-4.70;99.90
36458;DHT22;22480;50.546;12.292;2023-02-28T00:37:31;-4.60;99.90
36458;DHT22;22480;50.546;12.292;2023-02-28T00:39:57;-4.50;99.90
36458;DHT22;22480;50.546;12.292;2023-02-28T00:42:23;-4.60;99.90
36458;DHT22;22480;50.546;12.292;2023-02-28T00:44:49;-4.60;99.90
36458;DHT22;22480;50.546;12.292;2023-02-28T00:47:15;-4.60;99.90
36458;DHT22;22480;50.546;12.292;2023-02-28T00:49:42;-4.70;99.90
36458;DHT22;22480;50.546;12.292;2023-02-28T00:52:08;-4.70;99.90
36458;DHT22;22480;50.546;12.292;2023-02-28T00:54:35;-4.80;99.90
36458;DHT22;22480;50.546;12.292;2023-02-28T00:57:00;-4.90;99.90
36458;DHT22;22480;50.546;12.292;2023-02-28T00:59:26;-5.00;99.90
36458;DHT22;22480;50.546;12.292;2023-02-28T01:01:52;-5.00;99.90
36458;DHT22;22480;50.546;12.292;2023-02-28T01:04:18;-5.10;99.90
36458;DHT22;22480;50.546;12.292;2023-02-28T01:06:43;-5.10;99.90
36458;DHT22;22480;50.546;12.292;2023-02-28T01:09:10;-5.10;99.90
36458;DHT22;22480;50.546;12.292;2023-02-28T01:11:36;-5.00;99.90
36458;DHT22;22480;50.546;12.292;2023-02-28T01:14:02;-5.00;99.90
36458;DHT22;22480;50.546;12.292;2023-02-28T01:16:29;-4.90;99.90
36458;DHT22;22480;50.546;12.292;2023-02-28T01:18:56;-4.80;99.90
36458;DHT22;22480;50.546;12.292;2023-02-28T01:21:22;-4.80;99.90
36458;DHT22;22480;50.546;12.292;2023-02-28T01:23:48;-4.70;99.90
36458;DHT22;22480;50.546;12.292;2023-02-28T01:26:19;-4.60;99.90
36458;DHT22;22480;50.546;12.292;2023-02-28T01:28:46;-4.60;99.90
36458;DHT22;22480;50.546;12.292;2023-02-28T01:31:12;-4.50;99.90
36458;DHT22;22480;50.546;12.292;2023-02-28T01:33:38;-4.60;99.90
36458;DHT22;22480;50.546;12.292;2023-02-28T01:36:08;-4.60;99.90
36458;DHT22;22480;50.546;12.292;2023-02-28T01:38:35;-4.70;99.90
36458;DHT22;22480;50.546;12.292;2023-02-28T01:41:01;-4.80;99.90
36458;DHT22;22480;50.546;12.292;2023-02-28T01:43:28;-4.90;99.90
36458;DHT22;22480;50.546;12.292;2023-02-28T01:45:55;-5.00;99.90
36458;DHT22;22480;50.546;12.292;2023-02-28T01:48:25;-5.10;99.90
36458;DHT22;22480;50.546;12.292;2023-02-28T01:50:52;-5.20;99.90
36458;DHT22;22480;50.546;12.292;2023-02-28T01:53:24;-5.30;99.90
36458;DHT22;22480;50.546;12.292;2023-02-28T01:55:53;-5.20;99.90
36458;DHT22;22480;50.546;12.292;2023-02-28T01:58:20;-5.20;99.90
36458;DHT22;22480;50.546;12.292;2023-02-28T02:00:46;-5.10;99.90
36458;DHT22;22480;50.546;12.292;2023-02-28T02:03:14;-5.10;99.90
36458;DHT22;22480;50.546;12.292;2023-02-28T02:05:45;-5.10;99.90
36458;DHT22;22480;50.546;12.292;2023-02-28T02:08:23;-5.30;99.90
36458;DHT22;22480;50.546;12.292;2023-02-28T02:10:52;-5.40;99.90
36458;DHT22;22480;50.546;12.292;2023-02-28T02:29:19;-6.40;99.90
36458;DHT22;22480;50.546;12.292;2023-02-28T02:34:45;-6.50;99.90
36458;DHT22;22480;50.546;12.292;2023-02-28T02:37:29;-6.20;99.90
36458;DHT22;22480;50.546;12.292;2023-02-28T02:48:02;-6.00;99.90
36458;DHT22;22480;50.546;12.292;2023-02-28T02:50:41;-5.90;99.90
36458;DHT22;22480;50.546;12.292;2023-02-28T02:53:09;-5.80;99.90
36458;DHT22;22480;50.546;12.292;2023-02-28T02:55:40;-5.70;99.90
36458;DHT22;22480;50.546;12.292;2023-02-28T02:58:08;-5.50;99.90
36458;DHT22;22480;50.546;12.292;2023-02-28T03:00:44;-5.40;99.90
36458;DHT22;22480;50.546;12.292;2023-02-28T03:03:12;-5.30;99.90
36458;DHT22;22480;50.546;12.292;2023-02-28T03:05:45;-5.20;99.90
36458;DHT22;22480;50.546;12.292;2023-02-28T03:08:11;-5.00;99.90
36458;DHT22;22480;50.546;12.292;2023-02-28T03:10:41;-4.90;99.90
36458;DHT22;22480;50.546;12.292;2023-02-28T03:18:27;-4.80;99.90
36458;DHT22;22480;50.546;12.292;2023-02-28T03:21:25;-4.80;99.90
36458;DHT22;22480;50.546;12.292;2023-02-28T03:26:26;-4.90;99.90
36458;DHT22;22480;50.546;12.292;2023-02-28T03:29:11;-5.00;99.90
36458;DHT22;22480;50.546;12.292;2023-02-28T03:32:02;-5.10;99.90
36458;DHT22;22480;50.546;12.292;2023-02-28T03:34:33;-5.30;99.90
36458;DHT22;22480;50.546;12.292;2023-02-28T03:37:04;-5.50;99.90
36458;DHT22;22480;50.546;12.292;2023-02-28T03:39:47;-5.60;99.90
36458;DHT22;22480;50.546;12.292;2023-02-28T03:42:18;-5.60;99.90
36458;DHT22;22480;50.546;12.292;2023-02-28T03:44:55;-5.80;99.90
36458;DHT22;22480;50.546;12.292;2023-02-28T03:47:24;-5.90;99.90
36458;DHT22;22480;50.546;12.292;2023-02-28T03:50:07;-6.00;99.90
36458;DHT22;22480;50.546;12.292;2023-02-28T03:52:35;-6.10;99.90
36458;DHT22;22480;50.546;12.292;2023-02-28T03:55:08;-6.20;99.90
36458;DHT22;22480;50.546;12.292;2023-02-28T04:02:38;-6.50;99.90
36458;DHT22;22480;50.546;12.292;2023-02-28T04:05:06;-6.60;99.90
36458;DHT22;22480;50.546;12.292;2023-02-28T04:07:32;-6.70;99.90
36458;DHT22;22480;50.546;12.292;2023-02-28T04:09:58;-6.70;99.90
36458;DHT22;22480;50.546;12.292;2023-02-28T04:12:24;-6.90;99.90
36458;DHT22;22480;50.546;12.292;2023-02-28T04:14:51;-7.00;99.90
36458;DHT22;22480;50.546;12.292;2023-02-28T04:17:17;-7.00;99.90
36458;DHT22;22480;50.546;12.292;2023-02-28T04:19:42;-7.10;99.90
36458;DHT22;22480;50.546;12.292;2023-02-28T04:22:09;-7.20;99.90
36458;DHT22;22480;50.546;12.292;2023-02-28T04:24:35;-7.30;99.90
36458;DHT22;22480;50.546;12.292;2023-02-28T04:27:01;-7.30;99.90
36458;DHT22;22480;50.546;12.292;2023-02-28T04:29:31;-7.20;99.90
36458;DHT22;22480;50.546;12.292;2023-02-28T04:31:59;-7.00;99.90
36458;DHT22;22480;50.546;12.292;2023-02-28T04:34:30;-6.90;99.90
36458;DHT22;22480;50.546;12.292;2023-02-28T04:36:57;-6.90;99.90
36458;DHT22;22480;50.546;12.292;2023-02-28T04:39:24;-6.80;99.90
36458;DHT22;22480;50.546;12.292;2023-02-28T04:41:50;-6.80;99.90
36458;DHT22;22480;50.546;12.292;2023-02-28T04:44:16;-6.60;99.90
36458;DHT22;22480;50.546;12.292;2023-02-28T04:46:43;-6.40;99.90
36458;DHT22;22480;50.546;12.292;2023-02-28T04:49:11;-6.20;99.90
36458;DHT22;22480;50.546;12.292;2023-02-28T04:51:37;-6.00;99.90
36458;DHT22;22480;50.546;12.292;2023-02-28T04:54:02;-5.70;99.90
36458;DHT22;22480;50.546;12.292;2023-02-28T04:56:28;-5.50;99.90
36458;DHT22;22480;50.546;12.292;2023-02-28T04:58:54;-5.40;99.90
36458;DHT22;22480;50.546;12.292;2023-02-28T05:01:31;-5.20;99.90
36458;DHT22;22480;50.546;12.292;2023-02-28T05:03:59;-5.00;99.90
36458;DHT22;22480;50.546;12.292;2023-02-28T05:06:28;-4.90;99.90
36458;DHT22;22480;50.546;12.292;2023-02-28T05:08:54;-4.70;99.90
36458;DHT22;22480;50.546;12.292;2023-02-28T05:11:22;-4.70;99.90
36458;DHT22;22480;50.546;12.292;2023-02-28T05:13:50;-4.60;99.90
36458;DHT22;22480;50.546;12.292;2023-02-28T05:16:16;-4.60;99.90
36458;DHT22;22480;50.546;12.292;2023-02-28T05:18:42;-4.60;99.90
36458;DHT22;22480;50.546;12.292;2023-02-28T05:21:27;-4.60;99.90
36458;DHT22;22480;50.546;12.292;2023-02-28T05:23:54;-4.50;99.90
36458;DHT22;22480;50.546;12.292;2023-02-28T05:26:20;-4.50;99.90
36458;DHT22;22480;50.546;12.292;2023-02-28T05:28:46;-4.50;99.90
36458;DHT22;22480;50.546;12.292;2023-02-28T05:31:12;-4.50;99.90
36458;DHT22;22480;50.546;12.292;2023-02-28T05:33:38;-4.40;99.90
36458;DHT22;22480;50.546;12.292;2023-02-28T05:36:05;-4.40;99.90
36458;DHT22;22480;50.546;12.292;2023-02-28T05:38:31;-4.40;99.90
36458;DHT22;22480;50.546;12.292;2023-02-28T05:40:57;-4.40;99.90
36458;DHT22;22480;50.546;12.292;2023-02-28T05:43:23;-4.50;99.90
36458;DHT22;22480;50.546;12.292;2023-02-28T05:45:49;-4.50;99.90
36458;DHT22;22480;50.546;12.292;2023-02-28T05:48:15;-4.60;99.90
36458;DHT22;22480;50.546;12.292;2023-02-28T05:50:42;-4.70;99.90
36458;DHT22;22480;50.546;12.292;2023-02-28T05:53:10;-4.80;99.90
36458;DHT22;22480;50.546;12.292;2023-02-28T05:55:36;-4.90;99.90
36458;DHT22;22480;50.546;12.292;2023-02-28T05:58:03;-4.90;99.90
36458;DHT22;22480;50.546;12.292;2023-02-28T06:00:28;-4.90;99.90
36458;DHT22;22480;50.546;12.292;2023-02-28T06:02:54;-4.90;99.90
36458;DHT22;22480;50.546;12.292;2023-02-28T06:05:23;-4.90;99.90
36458;DHT22;22480;50.546;12.292;2023-02-28T06:07:49;-4.90;99.90
36458;DHT22;22480;50.546;12.292;2023-02-28T06:10:15;-4.90;99.90
36458;DHT22;22480;50.546;12.292;2023-02-28T06:12:41;-4.90;99.90
36458;DHT22;22480;50.546;12.292;2023-02-28T06:15:14;-4.90;99.90
36458;DHT22;22480;50.546;12.292;2023-02-28T06:17:43;-4.90;99.90
36458;DHT22;22480;50.546;12.292;2023-02-28T06:20:10;-5.00;99.90
36458;DHT22;22480;50.546;12.292;2023-02-28T06:22:38;-5.00;99.90
36458;DHT22;22480;50.546;12.292;2023-02-28T06:25:05;-5.10;99.90
36458;DHT22;22480;50.546;12.292;2023-02-28T06:27:32;-5.10;99.90
36458;DHT22;22480;50.546;12.292;2023-02-28T06:29:58;-5.20;99.90
36458;DHT22;22480;50.546;12.292;2023-02-28T06:32:24;-5.20;99.90
36458;DHT22;22480;50.546;12.292;2023-02-28T06:34:50;-5.30;99.90
36458;DHT22;22480;50.546;12.292;2023-02-28T06:37:17;-5.30;99.90
36458;DHT22;22480;50.546;12.292;2023-02-28T06:39:43;-5.40;99.90
36458;DHT22;22480;50.546;12.292;2023-02-28T06:42:09;-5.40;99.90
36458;DHT22;22480;50.546;12.292;2023-02-28T06:44:34;-5.40;99.90
36458;DHT22;22480;50.546;12.292;2023-02-28T06:47:05;-5.30;99.90
36458;DHT22;22480;50.546;12.292;2023-02-28T06:49:33;-5.20;99.90
36458;DHT22;22480;50.546;12.292;2023-02-28T06:51:59;-5.00;99.90
36458;DHT22;22480;50.546;12.292;2023-02-28T06:54:25;-4.80;99.90
36458;DHT22;22480;50.546;12.292;2023-02-28T06:56:50;-4.60;99.90
36458;DHT22;22480;50.546;12.292;2023-02-28T06:59:16;-4.40;99.90
36458;DHT22;22480;50.546;12.292;2023-02-28T07:01:42;-4.10;99.90
36458;DHT22;22480;50.546;12.292;2023-02-28T07:04:08;-4.00;99.90
36458;DHT22;22480;50.546;12.292;2023-02-28T07:06:34;-3.80;99.90
36458;DHT22;22480;50.546;12.292;2023-02-28T07:09:00;-3.80;99.90
36458;DHT22;22480;50.546;12.292;2023-02-28T07:11:27;-3.90;99.90
36458;DHT22;22480;50.546;12.292;2023-02-28T07:13:56;-3.90;99.90
36458;DHT22;22480;50.546;12.292;2023-02-28T07:16:22;-4.00;99.90
36458;DHT22;22480;50.546;12.292;2023-02-28T07:18:49;-4.00;99.90
36458;DHT22;22480;50.546;12.292;2023-02-28T07:21:15;-4.10;99.90
36458;DHT22;22480;50.546;12.292;2023-02-28T07:23:41;-4.10;99.90
36458;DHT22;22480;50.546;12.292;2023-02-28T07:26:11;-4.10;99.90
36458;DHT22;22480;50.546;12.292;2023-02-28T07:28:40;-4.10;99.90
36458;DHT22;22480;50.546;12.292;2023-02-28T07:31:08;-4.10;99.90
36458;DHT22;22480;50.546;12.292;2023-02-28T07:33:33;-4.10;99.90
36458;DHT22;22480;50.546;12.292;2023-02-28T07:36:17;-4.10;99.90
36458;DHT22;22480;50.546;12.292;2023-02-28T07:38:47;-4.00;99.90
36458;DHT22;22480;50.546;12.292;2023-02-28T07:41:19;-4.00;99.90
36458;DHT22;22480;50.546;12.292;2023-02-28T07:43:46;-4.00;99.90
36458;DHT22;22480;50.546;12.292;2023-02-28T07:46:14;-4.00;99.90
36458;DHT22;22480;50.546;12.292;2023-02-28T07:48:43;-4.00;99.90
36458;DHT22;22480;50.546;12.292;2023-02-28T07:51:10;-3.90;99.90
36458;DHT22;22480;50.546;12.292;2023-02-28T07:53:35;-3.90;99.90
36458;DHT22;22480;50.546;12.292;2023-02-28T07:56:02;-3.80;99.90
36458;DHT22;22480;50.546;12.292;2023-02-28T07:58:29;-3.80;99.90
36458;DHT22;22480;50.546;12.292;2023-02-28T08:00:55;-3.80;99.90
36458;DHT22;22480;50.546;12.292;2023-02-28T08:03:22;-3.70;99.90
36458;DHT22;22480;50.546;12.292;2023-02-28T08:05:48;-3.70;99.90
36458;DHT22;22480;50.546;12.292;2023-02-28T08:08:15;-3.60;99.90
36458;DHT22;22480;50.546;12.292;2023-02-28T08:10:42;-3.60;99.90
36458;DHT22;22480;50.546;12.292;2023-02-28T08:13:08;-3.50;99.90
36458;DHT22;22480;50.546;12.292;2023-02-28T08:15:34;-3.50;99.90
36458;DHT22;22480;50.546;12.292;2023-02-28T08:18:00;-3.50;99.90
36458;DHT22;22480;50.546;12.292;2023-02-28T08:20:26;-3.40;99.90
36458;DHT22;22480;50.546;12.292;2023-02-28T08:22:52;-3.30;99.90
36458;DHT22;22480;50.546;12.292;2023-02-28T08:25:18;-3.20;99.90
36458;DHT22;22480;50.546;12.292;2023-02-28T08:27:43;-3.10;99.90
36458;DHT22;22480;50.546;12.292;2023-02-28T08:30:13;-3.10;99.90
36458;DHT22;22480;50.546;12.292;2023-02-28T08:32:40;-2.90;99.90
36458;DHT22;22480;50.546;12.292;2023-02-28T08:35:06;-2.80;99.90
36458;DHT22;22480;50.546;12.292;2023-02-28T08:37:32;-2.70;99.90
36458;DHT22;22480;50.546;12.292;2023-02-28T08:39:57;-2.60;99.90
36458;DHT22;22480;50.546;12.292;2023-02-28T08:42:23;-2.60;99.90
36458;DHT22;22480;50.546;12.292;2023-02-28T08:44:49;-2.50;99.90
36458;DHT22;22480;50.546;12.292;2023-02-28T08:47:15;-2.40;99.90
36458;DHT22;22480;50.546;12.292;2023-02-28T08:49:41;-2.30;99.90
36458;DHT22;22480;50.546;12.292;2023-02-28T08:52:06;-2.30;99.90
36458;DHT22;22480;50.546;12.292;2023-02-28T08:54:32;-2.20;99.90
36458;DHT22;22480;50.546;12.292;2023-02-28T08:56:59;-2.10;99.90
36458;DHT22;22480;50.546;12.292;2023-02-28T08:59:25;-2.00;99.90
36458;DHT22;22480;50.546;12.292;2023-02-28T09:01:50;-1.90;99.90
36458;DHT22;22480;50.546;12.292;2023-02-28T09:04:16;-1.90;99.90
36458;DHT22;22480;50.546;12.292;2023-02-28T09:06:41;-1.80;99.90
36458;DHT22;22480;50.546;12.292;2023-02-28T09:09:07;-1.80;99.90
36458;DHT22;22480;50.546;12.292;2023-02-28T09:11:35;-1.70;99.90
36458;DHT22;22480;50.546;12.292;2023-02-28T09:14:01;-1.70;99.90
36458;DHT22;22480;50.546;12.292;2023-02-28T09:16:29;-1.60;99.90
36458;DHT22;22480;50.546;12.292;2023-02-28T09:18:56;-1.50;99.90
36458;DHT22;22480;50.546;12.292;2023-02-28T09:21:21;-1.40;99.90
36458;DHT22;22480;50.546;12.292;2023-02-28T09:23:49;-1.40;99.90
36458;DHT22;22480;50.546;12.292;2023-02-28T09:28:41;-0.90;99.90
36458;DHT22;22480;50.546;12.292;2023-02-28T09:31:12;-0.30;99.90
36458;DHT22;22480;50.546;12.292;2023-02-28T09:33:39;0.20;99.90
36458;DHT22;22480;50.546;12.292;2023-02-28T09:36:04;0.60;99.90
36458;DHT22;22480;50.546;12.292;2023-02-28T09:38:30;1.00;99.90
36458;DHT22;22480;50.546;12.292;2023-02-28T09:40:59;1.50;99.90
36458;DHT22;22480;50.546;12.292;2023-02-28T09:43:28;2.20;99.90
36458;DHT22;22480;50.546;12.292;2023-02-28T09:48:50;3.00;95.10
36458;DHT22;22480;50.546;12.292;2023-02-28T09:54:01;2.80;92.70
36458;DHT22;22480;50.546;12.292;2023-02-28T09:56:38;2.90;92.00
36458;DHT22;22480;50.546;12.292;2023-02-28T09:59:34;3.10;86.00
36458;DHT22;22480;50.546;12.292;2023-02-28T10:02:24;3.50;88.10
36458;DHT22;22480;50.546;12.292;2023-02-28T10:05:00;3.50;81.90
36458;DHT22;22480;50.546;12.292;2023-02-28T10:08:00;3.60;86.80
36458;DHT22;22480;50.546;12.292;2023-02-28T10:13:01;4.50;80.10
36458;DHT22;22480;50.546;12.292;2023-02-28T10:15:31;4.90;76.20
36458;DHT22;22480;50.546;12.292;2023-02-28T10:18:02;5.50;74.10
36458;DHT22;22480;50.546;12.292;2023-02-28T10:20:32;5.90;76.40
36458;DHT22;22480;50.546;12.292;2023-02-28T10:23:21;6.40;76.20
36458;DHT22;22480;50.546;12.292;2023-02-28T10:26:01;6.80;67.10
36458;DHT22;22480;50.546;12.292;2023-02-28T10:28:31;7.00;66.70
36458;DHT22;22480;50.546;12.292;2023-02-28T10:30:57;6.80;67.60
36458;DHT22;22480;50.546;12.292;2023-02-28T10:33:32;6.80;64.70
36458;DHT22;22480;50.546;12.292;2023-02-28T10:36:00;6.90;64.30
36458;DHT22;22480;50.546;12.292;2023-02-28T10:38:33;6.90;65.40
36458;DHT22;22480;50.546;12.292;2023-02-28T10:41:15;7.20;70.10
36458;DHT22;22480;50.546;12.292;2023-02-28T10:43:43;8.50;67.60
36458;DHT22;22480;50.546;12.292;2023-02-28T10:48:44;8.40;57.60
36458;DHT22;22480;50.546;12.292;2023-02-28T10:51:12;8.20;64.30
36458;DHT22;22480;50.546;12.292;2023-02-28T10:53:47;8.50;63.10
36458;DHT22;22480;50.546;12.292;2023-02-28T10:56:16;8.10;61.70
36458;DHT22;22480;50.546;12.292;2023-02-28T10:58:50;7.90;68.10
36458;DHT22;22480;50.546;12.292;2023-02-28T11:03:58;8.40;59.00
36458;DHT22;22480;50.546;12.292;2023-02-28T11:06:34;7.80;61.70
36458;DHT22;22480;50.546;12.292;2023-02-28T11:09:06;7.70;61.50
36458;DHT22;22480;50.546;12.292;2023-02-28T11:11:43;7.00;66.10
36458;DHT22;22480;50.546;12.292;2023-02-28T11:14:22;7.40;64.60
36458;DHT22;22480;50.546;12.292;2023-02-28T11:16:50;8.10;61.80
36458;DHT22;22480;50.546;12.292;2023-02-28T11:19:19;8.00;59.30
36458;DHT22;22480;50.546;12.292;2023-02-28T11:21:57;7.90;62.30
36458;DHT22;22480;50.546;12.292;2023-02-28T11:24:40;7.90;61.10
36458;DHT22;22480;50.546;12.292;2023-02-28T11:29:57;7.90;59.90
36458;DHT22;22480;50.546;12.292;2023-02-28T11:32:24;7.70;61.30
36458;DHT22;22480;50.546;12.292;2023-02-28T11:35:10;7.80;59.10
36458;DHT22;22480;50.546;12.292;2023-02-28T11:37:40;7.80;59.60
36458;DHT22;22480;50.546;12.292;2023-02-28T11:40:14;8.20;59.80
36458;DHT22;22480;50.546;12.292;2023-02-28T11:53:56;10.40;61.80
36458;DHT22;22480;50.546;12.292;2023-02-28T11:56:32;10.70;58.20
36458;DHT22;22480;50.546;12.292;2023-02-28T12:07:33;10.20;54.00
36458;DHT22;22480;50.546;12.292;2023-02-28T12:12:54;9.70;55.90
36458;DHT22;22480;50.546;12.292;2023-02-28T12:23:43;11.60;56.60
36458;DHT22;22480;50.546;12.292;2023-02-28T12:26:23;12.20;54.80
36458;DHT22;22480;50.546;12.292;2023-02-28T12:29:21;12.40;52.40
36458;DHT22;22480;50.546;12.292;2023-02-28T12:32:01;11.80;51.10
36458;DHT22;22480;50.546;12.292;2023-02-28T12:34:33;10.40;52.40
36458;DHT22;22480;50.546;12.292;2023-02-28T12:37:05;9.70;56.00
36458;DHT22;22480;50.546;12.292;2023-02-28T12:39:38;9.90;57.00
36458;DHT22;22480;50.546;12.292;2023-02-28T12:42:10;10.00;54.80
36458;DHT22;22480;50.546;12.292;2023-02-28T12:47:11;10.70;54.20
36458;DHT22;22480;50.546;12.292;2023-02-28T12:49:45;11.10;53.80
36458;DHT22;22480;50.546;12.292;2023-02-28T12:52:23;11.50;52.80
36458;DHT22;22480;50.546;12.292;2023-02-28T12:55:03;11.00;52.30
36458;DHT22;22480;50.546;12.292;2023-02-28T12:57:33;10.40;55.90
36458;DHT22;22480;50.546;12.292;2023-02-28T13:00:17;10.80;55.10
36458;DHT22;22480;50.546;12.292;2023-02-28T13:05:32;10.00;56.90
36458;DHT22;22480;50.546;12.292;2023-02-28T13:10:44;9.30;57.20
36458;DHT22;22480;50.546;12.292;2023-02-28T13:13:20;9.20;57.30
36458;DHT22;22480;50.546;12.292;2023-02-28T13:16:08;9.10;58.00
36458;DHT22;22480;50.546;12.292;2023-02-28T13:18:38;9.50;58.80
36458;DHT22;22480;50.546;12.292;2023-02-28T13:21:07;8.70;58.50
36458;DHT22;22480;50.546;12.292;2023-02-28T13:24:00;8.80;59.70
36458;DHT22;22480;50.546;12.292;2023-02-28T13:34:37;9.70;57.80
36458;DHT22;22480;50.546;12.292;2023-02-28T13:47:40;10.30;55.90
36458;DHT22;22480;50.546;12.292;2023-02-28T13:55:49;9.50;56.70
36458;DHT22;22480;50.546;12.292;2023-02-28T13:58:41;9.10;58.90
36458;DHT22;22480;50.546;12.292;2023-02-28T14:01:29;8.70;59.10
36458;DHT22;22480;50.546;12.292;2023-02-28T14:06:59;8.70;60.80
36458;DHT22;22480;50.546;12.292;2023-02-28T14:09:35;9.20;60.00
36458;DHT22;22480;50.546;12.292;2023-02-28T14:18:18;8.20;60.80
36458;DHT22;22480;50.546;12.292;2023-02-28T14:20:46;8.20;63.90
36458;DHT22;22480;50.546;12.292;2023-02-28T14:26:47;8.80;62.30
36458;DHT22;22480;50.546;12.292;2023-02-28T14:32:00;8.00;61.40
36458;DHT22;22480;50.546;12.292;2023-02-28T14:37:08;7.70;64.70
36458;DHT22;22480;50.546;12.292;2023-02-28T14:39:36;7.50;66.80
36458;DHT22;22480;50.546;12.292;2023-02-28T14:42:33;7.40;66.10
36458;DHT22;22480;50.546;12.292;2023-02-28T14:45:00;7.40;65.60
36458;DHT22;22480;50.546;12.292;2023-02-28T14:47:31;7.20;66.20
36458;DHT22;22480;50.546;12.292;2023-02-28T14:49:59;6.60;67.30
36458;DHT22;22480;50.546;12.292;2023-02-28T14:52:30;6.60;71.00
36458;DHT22;22480;50.546;12.292;2023-02-28T14:55:04;6.40;71.40
36458;DHT22;22480;50.546;12.292;2023-02-28T14:57:35;6.80;69.80
36458;DHT22;22480;50.546;12.292;2023-02-28T15:02:38;7.00;67.30
36458;DHT22;22480;50.546;12.292;2023-02-28T15:07:46;6.60;69.00
36458;DHT22;22480;50.546;12.292;2023-02-28T15:10:26;6.70;71.90
36458;DHT22;22480;50.546;12.292;2023-02-28T15:12:55;6.90;69.40
36458;DHT22;22480;50.546;12.292;2023-02-28T15:15:24;6.80;71.50
36458;DHT22;22480;50.546;12.292;2023-02-28T15:17:55;7.00;71.80
36458;DHT22;22480;50.546;12.292;2023-02-28T15:20:23;6.90;67.90
36458;DHT22;22480;50.546;12.292;2023-02-28T15:22:51;6.40;71.00
36458;DHT22;22480;50.546;12.292;2023-02-28T15:25:22;6.30;73.20
36458;DHT22;22480;50.546;12.292;2023-02-28T15:27:53;6.00;73.60
36458;DHT22;22480;50.546;12.292;2023-02-28T15:30:32;5.70;72.80
36458;DHT22;22480;50.546;12.292;2023-02-28T15:33:05;5.50;76.60
36458;DHT22;22480;50.546;12.292;2023-02-28T15:35:32;5.40;78.50
36458;DHT22;22480;50.546;12.292;2023-02-28T15:40:54;4.80;84.30
36458;DHT22;22480;50.546;12.292;2023-02-28T15:43:31;4.90;84.80
36458;DHT22;22480;50.546;12.292;2023-02-28T15:46:04;4.70;84.80
36458;DHT22;22480;50.546;12.292;2023-02-28T15:48:37;4.60;88.30
36458;DHT22;22480;50.546;12.292;2023-02-28T15:51:18;4.30;87.10
36458;DHT22;22480;50.546;12.292;2023-02-28T15:53:48;4.20;90.50
36458;DHT22;22480;50.546;12.292;2023-02-28T15:56:27;3.90;91.00
36458;DHT22;22480;50.546;12.292;2023-02-28T15:59:20;3.60;93.30
36458;DHT22;22480;50.546;12.292;2023-02-28T16:01:46;3.60;95.10
36458;DHT22;22480;50.546;12.292;2023-02-28T16:04:15;3.70;94.30
36458;DHT22;22480;50.546;12.292;2023-02-28T16:06:45;3.70;95.00
36458;DHT22;22480;50.546;12.292;2023-02-28T16:09:13;3.50;95.10
36458;DHT22;22480;50.546;12.292;2023-02-28T16:11:50;3.30;96.20
36458;DHT22;22480;50.546;12.292;2023-02-28T16:14:19;3.10;96.20
36458;DHT22;22480;50.546;12.292;2023-02-28T16:16:48;2.90;98.30
36458;DHT22;22480;50.546;12.292;2023-02-28T16:19:14;2.60;99.20
36458;DHT22;22480;50.546;12.292;2023-02-28T16:21:40;2.40;99.90
36458;DHT22;22480;50.546;12.292;2023-02-28T16:24:06;2.10;99.90
36458;DHT22;22480;50.546;12.292;2023-02-28T16:26:33;1.90;99.90
36458;DHT22;22480;50.546;12.292;2023-02-28T16:29:00;1.80;99.90
36458;DHT22;22480;50.546;12.292;2023-02-28T16:31:28;1.60;99.90
36458;DHT22;22480;50.546;12.292;2023-02-28T16:33:53;1.20;99.90
36458;DHT22;22480;50.546;12.292;2023-02-28T16:36:23;0.70;99.90
36458;DHT22;22480;50.546;12.292;2023-02-28T16:38:50;0.20;99.90
36458;DHT22;22480;50.546;12.292;2023-02-28T16:41:19;-0.20;99.90
36458;DHT22;22480;50.546;12.292;2023-02-28T16:43:47;-0.60;99.90
36458;DHT22;22480;50.546;12.292;2023-02-28T16:46:14;-0.80;99.90
36458;DHT22;22480;50.546;12.292;2023-02-28T16:48:40;-1.00;99.90
36458;DHT22;22480;50.546;12.292;2023-02-28T16:51:12;-1.20;99.90
36458;DHT22;22480;50.546;12.292;2023-02-28T16:53:38;-1.30;99.90
36458;DHT22;22480;50.546;12.292;2023-02-28T16:56:04;-1.40;99.90
36458;DHT22;22480;50.546;12.292;2023-02-28T16:58:32;-1.50;99.90
36458;DHT22;22480;50.546;12.292;2023-02-28T17:01:02;-1.60;99.90
36458;DHT22;22480;50.546;12.292;2023-02-28T17:03:29;-1.60;99.90
36458;DHT22;22480;50.546;12.292;2023-02-28T17:05:55;-1.70;99.90
36458;DHT22;22480;50.546;12.292;2023-02-28T17:08:21;-1.80;99.90
36458;DHT22;22480;50.546;12.292;2023-02-28T17:10:47;-1.80;99.90
36458;DHT22;22480;50.546;12.292;2023-02-28T17:13:12;-1.90;99.90
36458;DHT22;22480;50.546;12.292;2023-02-28T17:15:39;-2.00;99.90
36458;DHT22;22480;50.546;12.292;2023-02-28T17:18:06;-2.00;99.90
36458;DHT22;22480;50.546;12.292;2023-02-28T17:20:34;-2.00;99.90
36458;DHT22;22480;50.546;12.292;2023-02-28T17:23:00;-2.10;99.90
36458;DHT22;22480;50.546;12.292;2023-02-28T17:25:26;-2.10;99.90
36458;DHT22;22480;50.546;12.292;2023-02-28T17:27:51;-2.20;99.90
36458;DHT22;22480;50.546;12.292;2023-02-28T17:32:46;-2.30;99.90
36458;DHT22;22480;50.546;12.292;2023-02-28T17:35:12;-2.40;99.90
36458;DHT22;22480;50.546;12.292;2023-02-28T17:37:38;-2.50;99.90
36458;DHT22;22480;50.546;12.292;2023-02-28T17:40:05;-2.40;99.90
36458;DHT22;22480;50.546;12.292;2023-02-28T17:42:31;-2.10;99.90
36458;DHT22;22480;50.546;12.292;2023-02-28T17:44:57;-2.00;99.90
36458;DHT22;22480;50.546;12.292;2023-02-28T17:47:22;-2.00;99.90
36458;DHT22;22480;50.546;12.292;2023-02-28T17:49:48;-2.00;99.90
36458;DHT22;22480;50.546;12.292;2023-02-28T17:52:14;-2.00;99.90
36458;DHT22;22480;50.546;12.292;2023-02-28T17:54:39;-2.10;99.90
36458;DHT22;22480;50.546;12.292;2023-02-28T17:57:05;-2.20;99.90
36458;DHT22;22480;50.546;12.292;2023-02-28T17:59:31;-2.30;99.90
36458;DHT22;22480;50.546;12.292;2023-02-28T18:02:02;-2.30;99.90
36458;DHT22;22480;50.546;12.292;2023-02-28T18:04:29;-2.40;99.90